createdAt,value
2019-03-18T00:03:02.675Z,2.63
2019-03-18T00:08:04.192Z,3.27
2019-03-18T00:13:05.800Z,4.20
2019-03-18T00:18:07.344Z,3.90
2019-03-18T00:23:08.825Z,4.20
2019-03-18T00:28:10.364Z,4.37
2019-03-18T00:33:11.900Z,5.07
2019-03-18T00:38:13.526Z,4.73
2019-03-18T00:43:15.167Z,5.83
2019-03-18T00:48:17.096Z,5.47
2019-03-18T00:53:18.619Z,5.10
2019-03-18T00:58:20.156Z,5.83
2019-03-18T01:03:21.672Z,6.27
2019-03-18T01:08:23.223Z,6.67
2019-03-18T01:13:25.101Z,5.93
2019-03-18T01:18:26.588Z,5.93
2019-03-18T01:23:28.131Z,5.77
2019-03-18T01:28:29.737Z,4.13
2019-03-18T01:33:31.558Z,3.60
2019-03-18T01:38:33.765Z,3.57
2019-03-18T01:43:35.615Z,2.90
2019-03-18T01:48:37.125Z,2.33
2019-03-18T01:53:38.651Z,2.40
2019-03-18T01:58:40.596Z,1.97
2019-03-18T02:03:42.559Z,2.40
2019-03-18T02:08:46.690Z,2.20
2019-03-18T02:13:49.097Z,2.07
2019-03-18T02:18:50.662Z,2.17
2019-03-18T02:23:52.242Z,2.03
2019-03-18T02:28:53.808Z,2.00
2019-03-18T02:33:55.398Z,2.27
2019-03-18T02:38:57.299Z,2.57
2019-03-18T02:43:58.839Z,2.10
2019-03-18T02:49:00.394Z,2.47
2019-03-18T02:54:01.922Z,2.20
2019-03-18T02:59:03.449Z,2.50
2019-03-18T03:04:04.940Z,1.97
2019-03-18T03:09:06.458Z,2.50
2019-03-18T03:14:07.960Z,2.80
2019-03-18T03:19:09.522Z,2.37
2019-03-18T03:24:11.156Z,3.07
2019-03-18T03:29:13.077Z,2.70
2019-03-18T03:34:14.761Z,2.60
2019-03-18T03:39:16.293Z,2.27
2019-03-18T03:44:17.870Z,2.80
2019-03-18T03:49:19.403Z,2.77
2019-03-18T03:54:20.946Z,2.63
2019-03-18T03:59:22.647Z,3.20
2019-03-18T04:04:24.180Z,2.43
2019-03-18T04:09:25.712Z,2.13
2019-03-18T04:14:27.231Z,2.27
2019-03-18T04:19:28.804Z,2.33
2019-03-18T04:24:30.302Z,2.07
2019-03-18T04:29:31.952Z,1.70
2019-03-18T04:34:33.488Z,2.23
2019-03-18T04:39:35.038Z,2.10
2019-03-18T04:44:36.594Z,2.10
2019-03-18T04:49:38.137Z,1.77
2019-03-18T04:54:39.647Z,2.20
2019-03-18T04:59:41.157Z,2.67
2019-03-18T05:04:42.704Z,3.43
2019-03-18T05:09:44.266Z,4.27
2019-03-18T05:14:45.806Z,2.70
2019-03-18T05:19:47.419Z,2.43
2019-03-18T05:24:49.033Z,2.47
2019-03-18T05:29:50.557Z,2.23
2019-03-18T05:34:52.085Z,2.80
2019-03-18T05:39:53.629Z,2.73
2019-03-18T05:44:55.155Z,2.33
2019-03-18T05:49:56.713Z,2.67
2019-03-18T05:54:58.271Z,2.57
2019-03-18T05:59:59.792Z,3.63
2019-03-18T06:05:01.349Z,2.70
2019-03-18T06:10:03.369Z,3.35
2019-03-18T06:15:05.796Z,4.33
2019-03-18T06:20:07.386Z,2.73
2019-03-18T06:25:09.287Z,2.27
2019-03-18T06:30:10.849Z,2.83
2019-03-18T06:35:12.815Z,2.70
2019-03-18T06:40:14.317Z,2.83
2019-03-18T06:45:15.911Z,2.60
2019-03-18T06:50:17.442Z,2.67
2019-03-18T06:55:19.102Z,2.57
2019-03-18T07:00:20.793Z,2.23
2019-03-18T07:05:22.419Z,2.10
2019-03-18T07:10:23.976Z,2.37
2019-03-18T07:15:25.591Z,2.30
2019-03-18T07:20:27.529Z,2.07
2019-03-18T07:25:29.123Z,2.13
2019-03-18T07:30:31.373Z,2.40
2019-03-18T07:35:32.944Z,1.80
2019-03-18T07:40:34.517Z,2.17
2019-03-18T07:45:36.170Z,2.10
2019-03-18T07:50:37.732Z,2.57
2019-03-18T07:55:39.302Z,3.13
2019-03-18T08:00:41.225Z,2.60
2019-03-18T08:05:42.739Z,2.70
2019-03-18T08:10:44.593Z,3.07
2019-03-18T08:15:46.120Z,3.20
2019-03-18T08:20:48.171Z,3.30
2019-03-18T08:25:49.677Z,2.90
2019-03-18T08:30:51.210Z,2.70
2019-03-18T08:35:52.719Z,3.37
2019-03-18T08:40:54.246Z,2.80
2019-03-18T08:45:55.804Z,2.83
2019-03-18T08:50:57.311Z,3.00
2019-03-18T08:55:58.836Z,3.43
2019-03-18T09:01:00.321Z,3.30
2019-03-18T09:06:01.942Z,3.70
2019-03-18T09:11:03.443Z,3.90
2019-03-18T09:16:05.333Z,2.93
2019-03-18T09:21:07.202Z,3.03
2019-03-18T09:26:08.797Z,2.70
2019-03-18T09:31:10.676Z,2.80
2019-03-18T09:36:12.199Z,2.90
2019-03-18T09:41:13.757Z,3.13
2019-03-18T09:46:15.291Z,2.43
2019-03-18T09:51:16.835Z,2.13
2019-03-18T09:56:18.369Z,2.00
2019-03-18T10:01:19.896Z,3.33
2019-03-18T10:06:22.008Z,2.70
2019-03-18T10:11:23.589Z,3.07
2019-03-18T10:16:25.090Z,2.80
2019-03-18T10:21:26.594Z,2.50
2019-03-18T10:26:28.174Z,2.20
2019-03-18T10:31:31.083Z,2.33
2019-03-18T10:36:32.592Z,4.33
2019-03-18T10:41:34.216Z,3.30
2019-03-18T10:46:36.218Z,3.40
2019-03-18T10:51:37.727Z,3.33
2019-03-18T10:56:41.275Z,2.97
2019-03-18T11:01:42.812Z,3.23
2019-03-18T11:06:44.335Z,3.37
2019-03-18T11:11:45.859Z,3.20
2019-03-18T11:16:47.355Z,2.60
2019-03-18T11:21:48.894Z,3.87
2019-03-18T11:26:50.402Z,2.80
2019-03-18T11:31:51.938Z,3.20
2019-03-18T11:36:53.437Z,3.47
2019-03-18T11:41:54.950Z,3.63
2019-03-18T11:46:56.546Z,3.00
2019-03-18T11:51:58.511Z,2.90
2019-03-18T11:57:00.106Z,3.17
2019-03-18T12:02:02.028Z,2.30
2019-03-18T12:07:03.643Z,2.53
2019-03-18T12:12:05.154Z,2.63
2019-03-18T12:17:06.670Z,2.50
2019-03-18T12:22:08.176Z,2.47
2019-03-18T12:27:09.784Z,2.40
2019-03-18T12:32:11.422Z,2.00
2019-03-18T12:37:12.958Z,2.10
2019-03-18T12:42:14.893Z,2.13
2019-03-18T12:47:16.736Z,2.60
2019-03-18T12:52:18.457Z,2.20
2019-03-18T12:57:20.069Z,2.63
2019-03-18T13:02:21.578Z,2.13
2019-03-18T13:07:23.397Z,2.43
2019-03-18T13:12:24.876Z,2.60
2019-03-18T13:17:26.870Z,2.60
2019-03-18T13:22:28.513Z,2.57
2019-03-18T13:27:30.301Z,2.50
2019-03-18T13:32:31.838Z,2.73
2019-03-18T13:37:33.379Z,3.07
2019-03-18T13:42:34.886Z,2.90
2019-03-18T13:47:36.446Z,2.53
2019-03-18T13:52:38.067Z,2.87
2019-03-18T13:57:39.686Z,3.03
2019-03-18T14:02:41.385Z,2.30
2019-03-18T14:07:43.014Z,2.13
2019-03-18T14:12:44.563Z,2.53
2019-03-18T14:17:46.180Z,2.27
2019-03-18T14:22:47.751Z,2.30
2019-03-18T14:27:49.351Z,2.40
2019-03-18T14:32:50.865Z,2.53
2019-03-18T14:37:52.804Z,2.63
2019-03-18T14:42:54.427Z,1.90
2019-03-18T14:47:55.931Z,1.67
2019-03-18T14:52:57.482Z,2.27
2019-03-18T14:57:59.042Z,2.10
2019-03-18T15:03:01.675Z,3.00
2019-03-18T15:08:03.266Z,2.43
2019-03-18T15:13:05.098Z,2.23
2019-03-18T15:18:06.741Z,2.17
2019-03-18T15:23:08.272Z,2.00
2019-03-18T15:28:09.924Z,2.20
2019-03-18T15:33:12.600Z,2.23
2019-03-18T15:38:14.124Z,2.80
2019-03-18T15:43:16.443Z,2.20
2019-03-18T15:48:18.079Z,2.60
2019-03-18T15:53:19.693Z,2.87
2019-03-18T15:58:21.339Z,2.20
2019-03-18T16:03:23.990Z,2.87
2019-03-18T16:08:25.773Z,2.50
2019-03-18T16:13:27.673Z,2.53
2019-03-18T16:18:29.282Z,2.37
2019-03-18T16:23:30.956Z,1.97
2019-03-18T16:28:32.620Z,2.73
2019-03-18T16:33:34.255Z,3.33
2019-03-18T16:38:35.814Z,2.50
2019-03-18T16:43:37.321Z,2.77
2019-03-18T16:48:38.943Z,2.77
2019-03-18T16:53:40.455Z,3.37
2019-03-18T16:58:44.118Z,3.43
2019-03-18T17:03:45.963Z,2.90
2019-03-18T17:08:47.474Z,3.37
2019-03-18T17:13:49.005Z,3.10
2019-03-18T17:18:51.027Z,3.30
2019-03-18T17:23:52.900Z,3.30
2019-03-18T17:28:54.416Z,2.63
2019-03-18T17:33:56.134Z,2.87
2019-03-18T17:38:57.698Z,3.50
2019-03-18T17:43:59.222Z,3.60
2019-03-18T17:49:00.875Z,3.10
2019-03-18T17:54:02.371Z,2.80
2019-03-18T17:59:03.924Z,3.00
2019-03-18T18:04:05.529Z,3.70
2019-03-18T18:09:07.202Z,2.70
2019-03-18T18:14:09.236Z,3.40
2019-03-18T18:19:11.204Z,3.20
2019-03-18T18:24:12.844Z,2.97
2019-03-18T18:29:14.721Z,3.20
2019-03-18T18:34:16.570Z,2.77
2019-03-18T18:39:18.547Z,4.10
2019-03-18T18:44:20.062Z,3.30
2019-03-18T18:49:21.672Z,3.57
2019-03-18T18:54:23.317Z,3.60
2019-03-18T18:59:24.875Z,3.20
2019-03-18T19:04:26.587Z,3.10
2019-03-18T19:09:28.112Z,3.40
2019-03-18T19:14:29.668Z,4.13
2019-03-18T19:19:32.329Z,5.47
2019-03-18T19:24:34.020Z,4.20
2019-03-18T19:29:36.774Z,3.90
2019-03-18T19:34:38.355Z,3.70
2019-03-18T19:39:40.011Z,4.67
2019-03-18T19:44:41.657Z,4.77
2019-03-18T19:49:43.598Z,5.03
2019-03-18T19:54:46.217Z,4.60
2019-03-18T19:59:47.870Z,4.57
2019-03-18T20:04:49.666Z,4.47
2019-03-18T20:09:51.394Z,3.13
2019-03-18T20:14:53.123Z,3.73
2019-03-18T20:19:54.879Z,4.43
2019-03-18T20:24:56.516Z,4.07
2019-03-18T20:29:58.543Z,4.13
2019-03-18T20:35:00.531Z,4.40
2019-03-18T20:40:02.156Z,4.33
2019-03-18T20:45:04.628Z,4.47
2019-03-18T20:50:08.076Z,4.10
2019-03-18T20:55:09.757Z,5.13
2019-03-18T21:00:12.747Z,5.03
2019-03-18T21:05:14.334Z,5.10
2019-03-18T21:10:15.970Z,5.10
2019-03-18T21:15:17.660Z,4.87
2019-03-18T21:20:19.202Z,5.00
2019-03-18T21:25:20.834Z,5.23
2019-03-18T21:30:22.502Z,5.63
2019-03-18T21:35:24.069Z,5.17
2019-03-18T21:40:26.181Z,5.53
2019-03-18T21:45:27.736Z,5.37
2019-03-18T21:50:29.408Z,5.93
2019-03-18T21:55:31.031Z,5.70
2019-03-18T22:00:32.669Z,5.53
2019-03-18T22:05:34.199Z,5.97
2019-03-18T22:10:35.992Z,5.20
2019-03-18T22:15:37.925Z,5.00
2019-03-18T22:20:39.598Z,4.40
2019-03-18T22:25:41.136Z,4.43
2019-03-18T22:30:42.876Z,4.77
2019-03-18T22:35:44.845Z,4.47
2019-03-18T22:40:46.447Z,5.30
2019-03-18T22:45:48.033Z,6.57
2019-03-18T22:50:49.781Z,6.73
2019-03-18T22:55:51.366Z,8.13
2019-03-18T23:00:52.990Z,7.83
2019-03-18T23:05:54.621Z,6.70
2019-03-18T23:10:56.599Z,6.47
2019-03-18T23:15:58.163Z,6.90
2019-03-18T23:21:00.152Z,6.33
2019-03-18T23:26:01.704Z,8.23
2019-03-18T23:31:03.275Z,7.73
2019-03-18T23:36:04.900Z,7.03
2019-03-18T23:41:06.878Z,6.57
2019-03-18T23:46:08.498Z,7.40
2019-03-18T23:51:10.082Z,6.70
2019-03-18T23:56:11.658Z,6.00
